createdAt,value
2019-03-09T00:00:54.782Z,67.77
2019-03-09T00:01:55.057Z,67.86
2019-03-09T00:02:54.813Z,67.48
2019-03-09T00:03:55.191Z,67.68
2019-03-09T00:04:54.857Z,67.68
2019-03-09T00:05:55.138Z,67.68
2019-03-09T00:06:54.896Z,67.68
2019-03-09T00:07:55.179Z,67.77
2019-03-09T00:08:54.928Z,68.05
2019-03-09T00:09:54.950Z,67.86
2019-03-09T00:10:55.235Z,67.77
2019-03-09T00:11:55.249Z,67.86
2019-03-09T00:12:55.267Z,67.86
2019-03-09T00:13:55.295Z,67.86
2019-03-09T00:14:55.051Z,67.48
2019-03-09T00:15:55.332Z,67.68
2019-03-09T00:16:55.090Z,67.48
2019-03-09T00:17:55.110Z,67.58
2019-03-09T00:18:55.388Z,67.58
2019-03-09T00:19:55.150Z,67.68
2019-03-09T00:20:55.350Z,67.58
2019-03-09T00:21:55.191Z,67.48
2019-03-09T00:22:55.205Z,67.58
2019-03-09T00:23:55.226Z,67.68
2019-03-09T00:24:55.256Z,67.58
2019-03-09T00:25:57.033Z,67.77
2019-03-09T00:26:55.290Z,67.39
2019-03-09T00:27:55.568Z,67.58
2019-03-09T00:28:55.324Z,67.58
2019-03-09T00:29:55.583Z,67.68
2019-03-09T00:30:55.621Z,67.77
2019-03-09T00:31:55.385Z,67.68
2019-03-09T00:32:55.668Z,67.39
2019-03-09T00:33:55.684Z,67.77
2019-03-09T00:34:55.592Z,67.68
2019-03-09T00:35:55.468Z,67.77
2019-03-09T00:36:55.740Z,67.58
2019-03-09T00:37:55.709Z,67.86
2019-03-09T00:38:55.787Z,67.68
2019-03-09T00:39:55.800Z,67.68
2019-03-09T00:40:55.557Z,67.58
2019-03-09T00:41:55.848Z,67.68
2019-03-09T00:42:55.862Z,67.68
2019-03-09T00:43:55.619Z,67.77
2019-03-09T00:44:55.906Z,67.68
2019-03-09T00:45:55.920Z,67.86
2019-03-09T00:46:55.838Z,67.48
2019-03-09T00:47:55.695Z,67.68
2019-03-09T00:48:55.996Z,67.39
2019-03-09T00:49:56.000Z,67.68
2019-03-09T00:50:56.015Z,67.77
2019-03-09T00:51:55.777Z,67.58
2019-03-09T00:52:55.792Z,67.39
2019-03-09T00:53:56.077Z,67.86
2019-03-09T00:54:56.395Z,67.86
2019-03-09T00:55:56.111Z,67.77
2019-03-09T00:56:55.873Z,68.24
2019-03-09T00:57:55.894Z,67.86
2019-03-09T00:58:56.170Z,68.44
2019-03-09T00:59:56.193Z,68.4
2019-03-09T01:00:56.208Z,68.44
2019-03-09T01:01:56.230Z,68.5
2019-03-09T01:02:55.992Z,68.05
2019-03-09T01:03:56.025Z,68.05
2019-03-09T01:04:56.284Z,68.3
2019-03-09T01:05:56.306Z,68.05
2019-03-09T01:06:56.062Z,68.5
2019-03-09T01:07:56.344Z,68.3
2019-03-09T01:08:56.100Z,67.96
2019-03-09T01:09:56.119Z,68.5
2019-03-09T01:10:56.141Z,68.5
2019-03-09T01:11:56.426Z,68.3
2019-03-09T01:12:56.441Z,68.02
2019-03-09T01:13:56.197Z,68.24
2019-03-09T01:14:56.215Z,68.34
2019-03-09T01:15:56.235Z,68.44
2019-03-09T01:16:56.520Z,68.4
2019-03-09T01:17:56.547Z,68.24
2019-03-09T01:18:56.558Z,68.4
2019-03-09T01:19:56.315Z,68.3
2019-03-09T01:20:56.341Z,68.21
2019-03-09T01:21:56.355Z,68.3
2019-03-09T01:22:56.373Z,68.3
2019-03-09T01:23:56.391Z,68.12
2019-03-09T01:24:56.677Z,68.5
2019-03-09T01:25:56.693Z,68.3
2019-03-09T01:26:56.450Z,68.21
2019-03-09T01:27:56.467Z,68.21
2019-03-09T01:28:56.492Z,68.59
2019-03-09T01:29:56.510Z,68.12
2019-03-09T01:30:56.795Z,68.21
2019-03-09T01:31:56.810Z,68.12
2019-03-09T01:32:56.835Z,67.74
2019-03-09T01:33:56.868Z,68.12
2019-03-09T01:34:56.869Z,67.83
2019-03-09T01:35:56.630Z,68.3
2019-03-09T01:36:56.643Z,67.83
2019-03-09T01:37:56.662Z,68.21
2019-03-09T01:38:56.681Z,68.78
2019-03-09T01:39:56.702Z,68.69
2019-03-09T01:40:56.980Z,68.3
2019-03-09T01:41:56.743Z,67.93
2019-03-09T01:42:56.838Z,68.59
2019-03-09T01:43:56.787Z,68.5
2019-03-09T01:44:56.796Z,68.5
2019-03-09T01:45:56.817Z,68.5
2019-03-09T01:46:57.097Z,68.69
2019-03-09T01:47:56.856Z,68.4
2019-03-09T01:48:56.875Z,68.59
2019-03-09T01:49:56.901Z,68.3
2019-03-09T01:50:57.172Z,68.21
2019-03-09T01:51:57.195Z,68.59
2019-03-09T01:52:57.216Z,68.5
2019-03-09T01:53:57.234Z,68.4
2019-03-09T01:54:57.252Z,68.5
2019-03-09T01:55:57.011Z,68.4
2019-03-09T01:56:57.293Z,68.4
2019-03-09T01:57:57.342Z,68.3
2019-03-09T01:58:57.360Z,68.3
2019-03-09T01:59:57.094Z,68.3
2019-03-09T02:00:57.103Z,68.4
2019-03-09T02:01:57.387Z,68.4
2019-03-09T02:02:57.143Z,68.3
2019-03-09T02:03:57.429Z,68.5
2019-03-09T02:04:57.445Z,68.4
2019-03-09T02:05:57.198Z,68.5
2019-03-09T02:06:57.220Z,68.5
2019-03-09T02:07:57.236Z,68.5
2019-03-09T02:08:57.256Z,68.3
2019-03-09T02:09:57.539Z,68.4
2019-03-09T02:10:57.558Z,68.5
2019-03-09T02:11:57.576Z,68.5
2019-03-09T02:12:57.613Z,69.07
2019-03-09T02:13:57.353Z,68.98
2019-03-09T02:14:57.373Z,68.98
2019-03-09T02:15:57.390Z,68.69
2019-03-09T02:16:57.679Z,68.4
2019-03-09T02:17:57.693Z,68.88
2019-03-09T02:18:57.447Z,68.88
2019-03-09T02:19:57.466Z,69.07
2019-03-09T02:20:57.754Z,68.88
2019-03-09T02:21:57.507Z,68.69
2019-03-09T02:22:57.538Z,68.69
2019-03-09T02:23:57.803Z,68.88
2019-03-09T02:24:57.824Z,68.98
2019-03-09T02:25:57.844Z,68.69
2019-03-09T02:26:57.877Z,68.88
2019-03-09T02:27:57.622Z,68.69
2019-03-09T02:28:57.639Z,68.4
2019-03-09T02:29:57.922Z,68.98
2019-03-09T02:30:57.713Z,68.98
2019-03-09T02:31:57.699Z,68.88
2019-03-09T02:32:57.719Z,68.98
2019-03-09T02:33:57.756Z,68.21
2019-03-09T02:34:58.020Z,68.3
2019-03-09T02:35:57.779Z,68.3
2019-03-09T02:36:58.058Z,68.59
2019-03-09T02:37:58.082Z,68.3
2019-03-09T02:38:57.833Z,68.59
2019-03-09T02:39:58.131Z,68.59
2019-03-09T02:40:57.869Z,68.59
2019-03-09T02:41:57.896Z,68.69
2019-03-09T02:42:57.918Z,68.69
2019-03-09T02:43:57.932Z,69.17
2019-03-09T02:44:57.946Z,68.78
2019-03-09T02:45:57.965Z,68.78
2019-03-09T02:46:58.297Z,68.59
2019-03-09T02:47:58.278Z,69.26
2019-03-09T02:48:58.299Z,69.26
2019-03-09T02:49:58.575Z,69.07
2019-03-09T02:50:58.341Z,69.45
2019-03-09T02:51:58.350Z,69.17
2019-03-09T02:52:58.102Z,69.07
2019-03-09T02:53:58.400Z,69.35
2019-03-09T02:54:58.424Z,69.17
2019-03-09T02:55:58.425Z,69.07
2019-03-09T02:56:58.440Z,69.07
2019-03-09T02:57:58.468Z,68.98
2019-03-09T02:58:58.480Z,69.07
2019-03-09T02:59:58.235Z,68.98
2019-03-09T03:00:58.517Z,68.98
2019-03-09T03:01:58.550Z,69.07
2019-03-09T03:02:58.562Z,68.98
2019-03-09T03:03:58.322Z,68.98
2019-03-09T03:04:58.594Z,69.17
2019-03-09T03:05:58.614Z,68.98
2019-03-09T03:06:58.389Z,69.07
2019-03-09T03:07:58.656Z,68.69
2019-03-09T03:08:58.671Z,69.17
2019-03-09T03:09:58.689Z,69.17
2019-03-09T03:10:58.723Z,69.07
2019-03-09T03:11:58.738Z,69.17
2019-03-09T03:12:58.754Z,69.17
2019-03-09T03:13:58.794Z,69.74
2019-03-09T03:14:58.545Z,69.74
2019-03-09T03:15:58.810Z,69.74
2019-03-09T03:16:58.835Z,69.45
2019-03-09T03:17:58.851Z,69.54
2019-03-09T03:18:58.604Z,69.45
2019-03-09T03:19:58.629Z,69.26
2019-03-09T03:20:58.638Z,69.35
2019-03-09T03:21:58.660Z,69.45
2019-03-09T03:22:58.677Z,69.35
2019-03-09T03:23:58.708Z,69.54
2019-03-09T03:24:58.716Z,69.45
2019-03-09T03:25:58.734Z,69.17
2019-03-09T03:26:59.021Z,69.54
2019-03-09T03:27:58.775Z,69.54
2019-03-09T03:28:59.058Z,69.83
2019-03-09T03:29:59.074Z,69.45
2019-03-09T03:30:59.118Z,69.74
2019-03-09T03:31:58.860Z,69.45
2019-03-09T03:32:58.883Z,69.93
2019-03-09T03:33:58.892Z,70.02
2019-03-09T03:34:58.923Z,69.93
2019-03-09T03:35:59.191Z,69.83
2019-03-09T03:36:59.211Z,69.83
2019-03-09T03:37:59.225Z,69.93
2019-03-09T03:38:58.993Z,69.93
2019-03-09T03:39:59.011Z,69.83
2019-03-09T03:40:59.024Z,69.79
2019-03-09T03:41:59.337Z,69.93
2019-03-09T03:42:59.320Z,70.02
2019-03-09T03:43:59.079Z,69.93
2019-03-09T03:44:59.102Z,69.6
2019-03-09T03:45:59.377Z,69.64
2019-03-09T03:46:59.400Z,69.93
2019-03-09T03:47:59.159Z,69.89
2019-03-09T03:48:59.186Z,69.54
2019-03-09T03:49:59.458Z,69.51
2019-03-09T03:50:59.477Z,69.51
2019-03-09T03:51:59.240Z,69.54
2019-03-09T03:52:59.266Z,69.89
2019-03-09T03:53:59.616Z,69.89
2019-03-09T03:54:59.293Z,69.42
2019-03-09T03:55:59.311Z,69.93
2019-03-09T03:56:59.599Z,70.08
2019-03-09T03:57:59.341Z,70.5
2019-03-09T03:58:59.363Z,70.18
2019-03-09T03:59:59.649Z,70.31
2019-03-09T04:00:59.405Z,70.27
2019-03-09T04:01:59.685Z,70.08
2019-03-09T04:02:59.705Z,70.27
2019-03-09T04:03:59.461Z,70.4
2019-03-09T04:04:59.479Z,70.37
2019-03-09T04:05:59.498Z,70.27
2019-03-09T04:06:59.568Z,69.89
2019-03-09T04:07:59.794Z,69.79
2019-03-09T04:08:59.826Z,69.89
2019-03-09T04:09:59.834Z,69.79
2019-03-09T04:10:59.589Z,70.18
2019-03-09T04:11:59.872Z,70.18
2019-03-09T04:12:59.627Z,70.18
2019-03-09T04:13:59.695Z,70.37
2019-03-09T04:14:59.927Z,70.47
2019-03-09T04:15:59.775Z,70.37
2019-03-09T04:16:59.974Z,70.18
2019-03-09T04:17:59.728Z,70.18
2019-03-09T04:19:00.001Z,70.27
2019-03-09T04:19:59.757Z,70.18
2019-03-09T04:21:01.942Z,70.27
2019-03-09T04:22:00.061Z,70.47
2019-03-09T04:22:59.816Z,70.37
2019-03-09T04:23:59.839Z,70.37
2019-03-09T04:24:59.891Z,70.56
2019-03-09T04:26:00.136Z,70.56
2019-03-09T04:26:59.916Z,70.37
2019-03-09T04:28:00.171Z,70.27
2019-03-09T04:29:00.191Z,70.08
2019-03-09T04:29:59.948Z,70.37
2019-03-09T04:31:00.243Z,70.75
2019-03-09T04:32:00.040Z,70.56
2019-03-09T04:33:00.007Z,70.56
2019-03-09T04:34:00.286Z,70.56
2019-03-09T04:35:00.042Z,70.65
2019-03-09T04:36:00.058Z,70.18
2019-03-09T04:37:00.346Z,70.18
2019-03-09T04:38:00.104Z,70.27
2019-03-09T04:39:00.119Z,70.37
2019-03-09T04:40:00.399Z,70.37
2019-03-09T04:41:00.418Z,70.37
2019-03-09T04:42:00.211Z,70.56
2019-03-09T04:43:00.191Z,70.56
2019-03-09T04:44:00.478Z,70.75
2019-03-09T04:45:00.300Z,70.75
2019-03-09T04:46:00.249Z,70.56
2019-03-09T04:47:00.531Z,70.56
2019-03-09T04:48:00.557Z,70.47
2019-03-09T04:49:00.305Z,70.56
2019-03-09T04:50:00.350Z,70.47
2019-03-09T04:51:00.605Z,70.56
2019-03-09T04:52:00.623Z,70.47
2019-03-09T04:53:00.644Z,70.56
2019-03-09T04:54:00.400Z,70.56
2019-03-09T04:55:00.683Z,70.56
2019-03-09T04:56:00.442Z,70.56
2019-03-09T04:57:00.458Z,70.37
2019-03-09T04:58:00.481Z,70.56
2019-03-09T04:59:00.778Z,70.37
2019-03-09T05:00:00.518Z,70.75
2019-03-09T05:01:00.532Z,70.75
2019-03-09T05:02:00.555Z,70.75
2019-03-09T05:03:00.833Z,70.75
2019-03-09T05:04:00.855Z,70.75
2019-03-09T05:05:01.179Z,70.37
2019-03-09T05:06:00.630Z,70.47
2019-03-09T05:07:00.647Z,70.47
2019-03-09T05:08:00.669Z,70.65
2019-03-09T05:09:00.695Z,70.47
2019-03-09T05:10:00.967Z,70.47
2019-03-09T05:11:00.989Z,70.56
2019-03-09T05:12:00.741Z,70.94
2019-03-09T05:13:00.761Z,71.03
2019-03-09T05:14:01.044Z,70.84
2019-03-09T05:15:01.065Z,70.84
2019-03-09T05:16:00.818Z,70.94
2019-03-09T05:17:01.097Z,70.84
2019-03-09T05:18:01.118Z,70.94
2019-03-09T05:19:01.138Z,71.32
2019-03-09T05:20:00.892Z,70.84
2019-03-09T05:21:01.176Z,71.32
2019-03-09T05:22:01.194Z,71.03
2019-03-09T05:23:00.956Z,71.22
2019-03-09T05:24:00.975Z,71.22
2019-03-09T05:25:01.257Z,71.22
2019-03-09T05:26:01.280Z,70.84
2019-03-09T05:27:01.026Z,70.94
2019-03-09T05:28:01.045Z,70.94
2019-03-09T05:29:01.329Z,71.13
2019-03-09T05:30:01.353Z,71.13
2019-03-09T05:31:01.102Z,71.03
2019-03-09T05:32:01.384Z,71.13
2019-03-09T05:33:01.403Z,71.42
2019-03-09T05:34:01.159Z,70.75
2019-03-09T05:35:01.179Z,71.7
2019-03-09T05:36:01.198Z,71.22
2019-03-09T05:37:01.227Z,71.51
2019-03-09T05:38:01.497Z,71.51
2019-03-09T05:39:01.520Z,71.42
2019-03-09T05:40:01.276Z,71.51
2019-03-09T05:41:01.290Z,71.51
2019-03-09T05:42:01.573Z,71.32
2019-03-09T05:43:01.333Z,71.42
2019-03-09T05:44:01.346Z,71.32
2019-03-09T05:45:01.629Z,71.22
2019-03-09T05:46:01.386Z,71.22
2019-03-09T05:47:01.408Z,71.42
2019-03-09T05:48:01.693Z,71.42
2019-03-09T05:49:01.442Z,71.7
2019-03-09T05:50:01.460Z,71.61
2019-03-09T05:51:01.746Z,71.8
2019-03-09T05:52:01.502Z,71.7
2019-03-09T05:53:01.519Z,71.8
2019-03-09T05:54:01.802Z,71.61
2019-03-09T05:55:01.819Z,71.51
2019-03-09T05:56:01.579Z,71.7
2019-03-09T05:57:01.597Z,71.8
2019-03-09T05:58:01.879Z,71.7
2019-03-09T05:59:01.633Z,71.7
2019-03-09T06:00:01.653Z,71.7
2019-03-09T06:01:01.673Z,71.51
2019-03-09T06:02:01.954Z,71.61
2019-03-09T06:03:01.713Z,71.61
2019-03-09T06:04:02.787Z,71.8
2019-03-09T06:05:02.010Z,71.51
2019-03-09T06:06:02.034Z,71.42
2019-03-09T06:07:01.783Z,71.8
2019-03-09T06:08:01.809Z,71.98
2019-03-09T06:09:02.088Z,71.7
2019-03-09T06:10:01.845Z,72.08
2019-03-09T06:11:02.123Z,72.08
2019-03-09T06:12:01.881Z,72.08
2019-03-09T06:13:01.899Z,71.98
2019-03-09T06:14:02.179Z,71.89
2019-03-09T06:15:02.199Z,71.98
2019-03-09T06:16:01.958Z,72.27
2019-03-09T06:17:02.235Z,72.27
2019-03-09T06:18:01.991Z,72.17
2019-03-09T06:19:02.011Z,71.98
2019-03-09T06:20:02.294Z,72.27
2019-03-09T06:21:02.057Z,72.37
2019-03-09T06:22:02.330Z,72.27
2019-03-09T06:23:02.354Z,72.17
2019-03-09T06:24:02.117Z,72.46
2019-03-09T06:25:02.391Z,72.17
2019-03-09T06:26:02.421Z,72.08
2019-03-09T06:27:02.166Z,72.56
2019-03-09T06:28:02.446Z,72.08
2019-03-09T06:29:02.201Z,72.27
2019-03-09T06:30:02.488Z,72.08
2019-03-09T06:31:02.241Z,72.37
2019-03-09T06:32:02.521Z,72.08
2019-03-09T06:33:02.278Z,72.17
2019-03-09T06:34:02.295Z,71.98
2019-03-09T06:35:02.790Z,72.27
2019-03-09T06:36:02.331Z,72.17
2019-03-09T06:37:02.626Z,71.98
2019-03-09T06:38:02.375Z,72.08
2019-03-09T06:39:02.653Z,71.98
2019-03-09T06:40:02.815Z,72.08
2019-03-09T06:41:05.729Z,72.08
2019-03-09T06:42:02.451Z,72.17
2019-03-09T06:43:02.725Z,72.27
2019-03-09T06:44:02.757Z,72.17
2019-03-09T06:45:02.550Z,71.98
2019-03-09T06:46:02.785Z,72.27
2019-03-09T06:47:02.540Z,71.98
2019-03-09T06:48:02.823Z,71.98
2019-03-09T06:49:02.575Z,72.17
2019-03-09T06:50:02.861Z,72.08
2019-03-09T06:51:02.615Z,71.98
2019-03-09T06:52:02.634Z,71.89
2019-03-09T06:53:03.095Z,72.17
2019-03-09T06:54:02.672Z,72.17
2019-03-09T06:55:02.953Z,72.27
2019-03-09T06:56:02.710Z,72.08
2019-03-09T06:57:02.729Z,72.17
2019-03-09T06:58:03.056Z,71.89
2019-03-09T06:59:02.783Z,72.08
2019-03-09T07:00:02.791Z,72.17
2019-03-09T07:01:03.066Z,72.17
2019-03-09T07:02:03.086Z,72.08
2019-03-09T07:03:02.840Z,72.08
2019-03-09T07:04:03.126Z,72.27
2019-03-09T07:05:02.879Z,72.46
2019-03-09T07:06:02.899Z,72.17
2019-03-09T07:07:03.179Z,72.17
2019-03-09T07:08:02.935Z,72.27
2019-03-09T07:09:02.955Z,72.08
2019-03-09T07:10:03.237Z,72.17
2019-03-09T07:11:02.994Z,71.98
2019-03-09T07:12:03.273Z,72.37
2019-03-09T07:13:03.029Z,71.89
2019-03-09T07:14:03.312Z,72.08
2019-03-09T07:15:03.336Z,71.8
2019-03-09T07:16:03.086Z,71.89
2019-03-09T07:17:03.365Z,72.12
2019-03-09T07:18:03.394Z,71.89
2019-03-09T07:19:03.145Z,72.21
2019-03-09T07:20:12.071Z,71.45
2019-03-09T07:21:03.184Z,71.42
2019-03-09T07:22:03.201Z,71.45
2019-03-09T07:23:03.486Z,71.55
2019-03-09T07:24:03.241Z,71.73
2019-03-09T07:25:03.259Z,71.64
2019-03-09T07:26:03.540Z,71.83
2019-03-09T07:27:03.292Z,71.55
2019-03-09T07:28:03.314Z,71.64
2019-03-09T07:29:03.333Z,71.93
2019-03-09T07:30:03.619Z,72.12
2019-03-09T07:31:03.371Z,71.64
2019-03-09T07:32:03.391Z,71.73
2019-03-09T07:33:03.673Z,71.83
2019-03-09T07:34:03.426Z,71.73
2019-03-09T07:35:03.717Z,71.83
2019-03-09T07:36:03.467Z,71.64
2019-03-09T07:37:03.772Z,71.64
2019-03-09T07:38:03.767Z,71.64
2019-03-09T07:39:03.789Z,71.83
2019-03-09T07:40:03.821Z,71.83
2019-03-09T07:41:03.827Z,71.64
2019-03-09T07:42:03.586Z,71.55
2019-03-09T07:43:04.317Z,71.64
2019-03-09T07:44:03.627Z,71.64
2019-03-09T07:45:03.903Z,71.64
2019-03-09T07:46:03.919Z,71.55
2019-03-09T07:47:03.941Z,71.64
2019-03-09T07:48:03.969Z,71.73
2019-03-09T07:49:03.715Z,71.64
2019-03-09T07:50:03.998Z,71.55
2019-03-09T07:51:03.754Z,71.55
2019-03-09T07:52:03.773Z,71.55
2019-03-09T07:53:03.841Z,71.45
2019-03-09T07:54:04.070Z,71.64
2019-03-09T07:55:04.091Z,71.73
2019-03-09T07:56:04.107Z,71.73
2019-03-09T07:57:03.869Z,72.21
2019-03-09T07:58:04.154Z,72.02
2019-03-09T07:59:03.906Z,71.64
2019-03-09T08:00:04.192Z,71.64
2019-03-09T08:01:04.207Z,71.64
2019-03-09T08:02:04.227Z,71.64
2019-03-09T08:03:04.253Z,71.64
2019-03-09T08:04:04.321Z,71.83
2019-03-09T08:05:04.285Z,71.64
2019-03-09T08:06:04.302Z,72.12
2019-03-09T08:07:04.320Z,71.83
2019-03-09T08:08:04.088Z,71.83
2019-03-09T08:09:04.364Z,71.64
2019-03-09T08:10:04.382Z,71.64
2019-03-09T08:11:04.405Z,71.55
2019-03-09T08:12:04.418Z,71.73
2019-03-09T08:13:04.443Z,71.55
2019-03-09T08:14:04.471Z,71.45
2019-03-09T08:15:04.483Z,71.45
2019-03-09T08:16:04.234Z,71.45
2019-03-09T08:17:04.519Z,71.58
2019-03-09T08:18:04.270Z,71.48
2019-03-09T08:19:04.296Z,71.45
2019-03-09T08:20:04.582Z,71.48
2019-03-09T08:21:04.594Z,71.58
2019-03-09T08:22:04.621Z,71.11
2019-03-09T08:23:04.631Z,71.2
2019-03-09T08:24:04.398Z,70.92
2019-03-09T08:25:04.417Z,71.3
2019-03-09T08:26:04.439Z,70.92
2019-03-09T08:27:04.460Z,70.53
2019-03-09T08:28:04.469Z,70.53
2019-03-09T08:29:04.750Z,70.44
2019-03-09T08:30:05.186Z,70.92
2019-03-09T08:31:04.786Z,70.44
2019-03-09T08:32:04.545Z,70.53
2019-03-09T08:33:04.855Z,70.63
2019-03-09T08:34:04.866Z,70.53
2019-03-09T08:35:04.874Z,70.63
2019-03-09T08:36:04.908Z,70.63
2019-03-09T08:37:04.665Z,70.63
2019-03-09T08:38:04.681Z,70.72
2019-03-09T08:39:05.004Z,70.44
2019-03-09T08:40:04.716Z,70.72
2019-03-09T08:41:04.991Z,70.82
2019-03-09T08:42:04.762Z,70.63
2019-03-09T08:43:05.025Z,70.72
2019-03-09T08:44:05.104Z,70.63
2019-03-09T08:45:04.806Z,70.53
2019-03-09T08:46:04.829Z,70.63
2019-03-09T08:47:04.852Z,70.63
2019-03-09T08:48:05.148Z,70.63
2019-03-09T08:49:04.917Z,70.63
2019-03-09T08:50:04.908Z,70.63
2019-03-09T08:51:04.973Z,70.53
2019-03-09T08:52:04.990Z,70.63
2019-03-09T08:53:04.958Z,70.92
2019-03-09T08:54:05.078Z,70.53
2019-03-09T08:55:05.270Z,70.72
2019-03-09T08:56:05.037Z,70.53
2019-03-09T08:57:05.330Z,70.44
2019-03-09T08:58:05.329Z,70.53
2019-03-09T08:59:05.120Z,70.53
2019-03-09T09:00:05.457Z,70.72
2019-03-09T09:01:05.114Z,70.53
2019-03-09T09:02:05.180Z,70.63
2019-03-09T09:03:05.156Z,70.44
2019-03-09T09:04:05.437Z,70.72
2019-03-09T09:05:05.193Z,71.48
2019-03-09T09:06:05.212Z,71.3
2019-03-09T09:07:05.249Z,71.11
2019-03-09T09:08:06.593Z,71.01
2019-03-09T09:09:05.269Z,71.11
2019-03-09T09:10:05.320Z,71.11
2019-03-09T09:11:05.573Z,71.01
2019-03-09T09:12:05.330Z,71.3
2019-03-09T09:13:05.646Z,71.2
2019-03-09T09:14:05.631Z,70.82
2019-03-09T09:15:05.391Z,71.2
2019-03-09T09:16:05.419Z,70.82
2019-03-09T09:17:05.693Z,71.2
2019-03-09T09:18:05.729Z,71.3
2019-03-09T09:19:05.467Z,71.11
2019-03-09T09:20:05.751Z,71.2
2019-03-09T09:21:05.507Z,71.3
2019-03-09T09:22:06.752Z,70.92
2019-03-09T09:23:05.810Z,71.39
2019-03-09T09:24:05.832Z,71.11
2019-03-09T09:25:05.857Z,71.3
2019-03-09T09:26:05.608Z,71.3
2019-03-09T09:27:05.626Z,71.11
2019-03-09T09:28:05.907Z,71.01
2019-03-09T09:29:05.671Z,71.11
2019-03-09T09:30:05.948Z,71.3
2019-03-09T09:31:05.751Z,71.01
2019-03-09T09:32:05.985Z,71.11
2019-03-09T09:33:05.745Z,71.2
2019-03-09T09:34:06.027Z,70.72
2019-03-09T09:35:05.789Z,71.2
2019-03-09T09:36:06.065Z,71.87
2019-03-09T09:37:05.832Z,71.3
2019-03-09T09:38:06.107Z,71.2
2019-03-09T09:39:05.861Z,71.48
2019-03-09T09:40:06.222Z,71.2
2019-03-09T09:41:05.902Z,70.82
2019-03-09T09:42:06.181Z,71.48
2019-03-09T09:43:05.940Z,71.11
2019-03-09T09:44:06.222Z,70.92
2019-03-09T09:45:05.981Z,70.95
2019-03-09T09:46:06.261Z,71.23
2019-03-09T09:47:06.018Z,70.92
2019-03-09T09:48:06.037Z,71.39
2019-03-09T09:49:06.321Z,71.33
2019-03-09T09:50:06.082Z,71.2
2019-03-09T09:51:06.360Z,71.23
2019-03-09T09:52:06.117Z,70.95
2019-03-09T09:53:06.142Z,70.95
2019-03-09T09:54:06.421Z,71.14
2019-03-09T09:55:06.178Z,70.95
2019-03-09T09:56:06.198Z,71.33
2019-03-09T09:57:06.482Z,71.43
2019-03-09T09:58:06.239Z,70.86
2019-03-09T09:59:06.522Z,70.67
2019-03-09T10:00:06.277Z,71.04
2019-03-09T10:01:06.558Z,71.14
2019-03-09T10:02:06.579Z,70.86
2019-03-09T10:03:06.341Z,71.33
2019-03-09T10:04:07.566Z,71.14
2019-03-09T10:05:06.662Z,71.43
2019-03-09T10:06:08.495Z,71.43
2019-03-09T10:07:06.682Z,71.04
2019-03-09T10:08:06.435Z,71.04
2019-03-09T10:09:06.716Z,70.57
2019-03-09T10:10:06.740Z,70.67
2019-03-09T10:11:06.757Z,70.47
2019-03-09T10:12:06.775Z,70.47
2019-03-09T10:13:06.805Z,70.95
2019-03-09T10:14:06.556Z,70.57
2019-03-09T10:15:06.836Z,70.86
2019-03-09T10:16:06.600Z,70.76
2019-03-09T10:17:06.875Z,70.76
2019-03-09T10:18:06.895Z,70.57
2019-03-09T10:19:06.652Z,70.57
2019-03-09T10:20:06.938Z,70.67
2019-03-09T10:21:06.959Z,70.47
2019-03-09T10:22:06.714Z,70.67
2019-03-09T10:23:07.327Z,70.47
2019-03-09T10:24:07.015Z,70.57
2019-03-09T10:25:06.776Z,70.67
2019-03-09T10:26:06.793Z,70.95
2019-03-09T10:27:07.075Z,70.95
2019-03-09T10:28:07.098Z,70.38
2019-03-09T10:29:06.851Z,70.38
2019-03-09T10:30:06.888Z,70.38
2019-03-09T10:31:07.157Z,70.76
2019-03-09T10:32:07.175Z,70.67
2019-03-09T10:33:06.943Z,70.76
2019-03-09T10:34:06.953Z,70.67
2019-03-09T10:35:07.235Z,70.67
2019-03-09T10:36:06.993Z,70.67
2019-03-09T10:37:07.011Z,70.67
2019-03-09T10:38:07.294Z,70.76
2019-03-09T10:39:07.320Z,70.47
2019-03-09T10:40:07.072Z,70.76
2019-03-09T10:41:07.092Z,70.67
2019-03-09T10:42:07.375Z,70.47
2019-03-09T10:43:07.394Z,70.47
2019-03-09T10:44:07.192Z,70.47
2019-03-09T10:45:07.178Z,70.67
2019-03-09T10:46:07.455Z,70.67
2019-03-09T10:47:07.214Z,70.76
2019-03-09T10:48:07.245Z,70.86
2019-03-09T10:49:07.538Z,70.67
2019-03-09T10:50:07.270Z,70.57
2019-03-09T10:51:07.557Z,70.95
2019-03-09T10:52:07.574Z,71.04
2019-03-09T10:53:07.592Z,71.04
2019-03-09T10:54:07.617Z,70.51
2019-03-09T10:55:07.372Z,71.04
2019-03-09T10:56:07.657Z,70.51
2019-03-09T10:57:07.678Z,70.57
2019-03-09T10:58:07.439Z,70.67
2019-03-09T10:59:07.712Z,70.95
2019-03-09T11:00:07.734Z,71.04
2019-03-09T11:01:07.488Z,71.23
2019-03-09T11:02:07.512Z,70.95
2019-03-09T11:03:07.797Z,71.23
2019-03-09T11:04:07.550Z,71.23
2019-03-09T11:05:07.600Z,71.04
2019-03-09T11:06:07.900Z,71.04
2019-03-09T11:07:07.874Z,71.14
2019-03-09T11:08:07.634Z,70.95
2019-03-09T11:09:07.651Z,70.86
2019-03-09T11:10:07.934Z,70.57
2019-03-09T11:11:07.952Z,70.67
2019-03-09T11:12:07.713Z,70.57
2019-03-09T11:13:07.730Z,70.38
2019-03-09T11:14:07.752Z,70.76
2019-03-09T11:15:08.032Z,70.47
2019-03-09T11:16:07.795Z,70.79
2019-03-09T11:17:07.809Z,70.47
2019-03-09T11:18:07.830Z,70.67
2019-03-09T11:19:07.851Z,70.7
2019-03-09T11:20:07.868Z,70.76
2019-03-09T11:21:07.891Z,70.7
2019-03-09T11:22:08.172Z,70.7
2019-03-09T11:23:08.194Z,70.61
2019-03-09T11:24:08.214Z,70.51
2019-03-09T11:25:07.969Z,70.79
2019-03-09T11:26:07.995Z,70.79
2019-03-09T11:27:08.277Z,70.79
2019-03-09T11:28:08.032Z,70.7
2019-03-09T11:29:08.316Z,70.79
2019-03-09T11:30:08.078Z,70.61
2019-03-09T11:31:08.089Z,70.89
2019-03-09T11:32:08.371Z,70.89
2019-03-09T11:33:08.404Z,70.51
2019-03-09T11:34:08.153Z,70.51
2019-03-09T11:35:08.436Z,70.42
2019-03-09T11:36:08.205Z,70.32
2019-03-09T11:37:08.212Z,70.7
2019-03-09T11:38:08.233Z,70.32
2019-03-09T11:39:08.317Z,70.7
2019-03-09T11:40:08.274Z,71.08
2019-03-09T11:41:18.467Z,70.51
2019-03-09T11:42:08.316Z,70.51
2019-03-09T11:43:08.334Z,70.22
2019-03-09T11:44:08.355Z,70.61
2019-03-09T11:45:08.374Z,70.61
2019-03-09T11:46:08.399Z,70.7
2019-03-09T11:47:08.416Z,70.61
2019-03-09T11:48:08.434Z,70.61
2019-03-09T11:49:08.454Z,70.61
2019-03-09T11:50:08.474Z,70.51
2019-03-09T11:51:08.494Z,70.61
2019-03-09T11:52:16.274Z,70.7
2019-03-09T11:53:08.536Z,70.51
2019-03-09T11:54:08.553Z,70.61
2019-03-09T11:55:08.573Z,70.7
2019-03-09T11:56:08.596Z,70.7
2019-03-09T11:57:08.616Z,70.61
2019-03-09T11:58:08.635Z,70.7
2019-03-09T11:59:08.656Z,70.7
2019-03-09T12:00:08.677Z,70.32
2019-03-09T12:01:08.698Z,70.61
2019-03-09T12:02:08.723Z,70.61
2019-03-09T12:03:08.738Z,70.51
2019-03-09T12:04:09.022Z,70.61
2019-03-09T12:05:09.038Z,70.42
2019-03-09T12:06:08.805Z,70.51
2019-03-09T12:07:08.816Z,70.32
2019-03-09T12:08:08.836Z,70.03
2019-03-09T12:09:08.858Z,70.13
2019-03-09T12:10:08.879Z,70.13
2019-03-09T12:11:08.901Z,70.13
2019-03-09T12:12:08.924Z,70.42
2019-03-09T12:13:08.943Z,70.13
2019-03-09T12:14:08.958Z,70.13
2019-03-09T12:15:08.979Z,70.03
2019-03-09T12:16:09.260Z,70.13
2019-03-09T12:17:14.981Z,70.32
2019-03-09T12:18:09.098Z,70.32
2019-03-09T12:19:09.323Z,70.32
2019-03-09T12:20:09.343Z,70.51
2019-03-09T12:21:09.364Z,70.32
2019-03-09T12:22:09.384Z,70.22
2019-03-09T12:23:09.142Z,70.51
2019-03-09T12:24:19.926Z,70.16
2019-03-09T12:25:09.190Z,69.65
2019-03-09T12:26:09.209Z,69.93
2019-03-09T12:27:09.229Z,69.65
2019-03-09T12:28:09.246Z,69.59
2019-03-09T12:29:09.530Z,68.98
2019-03-09T12:30:09.338Z,69.21
2019-03-09T12:31:09.578Z,69.78
2019-03-09T12:32:09.324Z,69.4
2019-03-09T12:33:09.344Z,69.11
2019-03-09T12:34:09.370Z,69.74
2019-03-09T12:35:09.650Z,69.78
2019-03-09T12:36:09.675Z,69.21
2019-03-09T12:37:09.692Z,69.4
2019-03-09T12:38:09.465Z,69.21
2019-03-09T12:39:09.470Z,69.31
2019-03-09T12:40:09.488Z,69.11
2019-03-09T12:41:09.509Z,69.31
2019-03-09T12:42:09.804Z,69.02
2019-03-09T12:43:09.549Z,69.02
2019-03-09T12:44:09.833Z,69.37
2019-03-09T12:45:09.597Z,69.21
2019-03-09T12:46:09.608Z,69.21
2019-03-09T12:47:09.633Z,69.11
2019-03-09T12:48:09.651Z,69.4
2019-03-09T12:49:09.930Z,69.21
2019-03-09T12:50:09.691Z,69.11
2019-03-09T12:51:09.714Z,69.21
2019-03-09T12:52:09.993Z,69.02
2019-03-09T12:53:10.018Z,69.31
2019-03-09T12:54:10.037Z,69.31
2019-03-09T12:55:09.798Z,68.63
2019-03-09T12:56:09.814Z,68.82